Time;durP1;ratioP1;P1;durP2;ratioP2;P2;SDS_P1;SDS_P2;PMS_P1;PMS_P2;Temp;Humidity;BMP_temperature;BMP_pressure;BME280_temperature;BME280_humidity;BME280_pressure;Samples;Min_cycle;Max_cycle;Signal;HPM_P1;HPM_P2
2023/01/01 00:01:13;;;;;;;12.02;4.18;;;;;;;;;;5031082;28;20049;-68
2023/01/01 00:03:40;;;;;;;15.93;3.78;;;;;;;;;;5030965;28;20049;-68
2023/01/01 00:06:10;;;;;;;12.38;4.35;;;;;;;;;;5032001;28;20072;-69
2023/01/01 00:08:37;;;;;;;11.10;4.63;;;;;;;;;;5030161;28;20084;-70
2023/01/01 00:11:05;;;;;;;18.58;8.05;;;;;;;;;;5034800;28;20045;-70
2023/01/01 00:13:31;;;;;;;11.23;5.35;;;;;;;;;;5046852;28;20045;-67
2023/01/01 00:16:08;;;;;;;12.32;5.18;;;;;;;;;;5045461;28;20571;-66
2023/01/01 00:18:35;;;;;;;12.00;4.75;;;;;;;;;;5045929;28;20132;-68
2023/01/01 00:21:11;;;;;;;15.43;5.00;;;;;;;;;;5045903;28;20045;-68
2023/01/01 00:23:38;;;;;;;17.65;5.38;;;;;;;;;;5045284;28;20551;-69
2023/01/01 00:26:11;;;;;;;15.77;5.65;;;;;;;;;;5044130;28;20059;-70
2023/01/01 00:28:38;;;;;;;14.65;5.03;;;;;;;;;;5043698;28;20412;-69
2023/01/01 00:31:08;;;;;;;15.10;5.53;;;;;;;;;;5045424;28;20075;-68
2023/01/01 00:33:34;;;;;;;18.73;4.85;;;;;;;;;;5046684;28;20044;-67
2023/01/01 00:36:08;;;;;;;14.48;5.70;;;;;;;;;;5045380;28;20040;-69
2023/01/01 00:38:35;;;;;;;16.02;5.38;;;;;;;;;;5046091;28;20044;-66
2023/01/01 00:41:02;;;;;;;12.45;5.07;;;;;;;;;;5047712;28;20037;-67
2023/01/01 00:43:29;;;;;;;12.75;4.40;;;;;;;;;;5036200;28;20072;-68
2023/01/01 00:45:56;;;;;;;16.10;5.38;;;;;;;;;;5045054;28;20044;-68
2023/01/01 00:48:22;;;;;;;23.52;4.85;;;;;;;;;;5044537;28;20116;-68
2023/01/01 00:50:49;;;;;;;17.63;5.18;;;;;;;;;;5045175;28;20036;-68
2023/01/01 00:53:16;;;;;;;15.65;4.55;;;;;;;;;;5046245;28;20064;-68
2023/01/01 00:55:43;;;;;;;19.73;5.28;;;;;;;;;;5044301;28;21013;-63
2023/01/01 00:58:10;;;;;;;12.60;4.75;;;;;;;;;;5045851;28;20037;-67
2023/01/01 01:00:38;;;;;;;17.75;6.72;;;;;;;;;;5045121;28;20044;-67
2023/01/01 01:03:04;;;;;;;20.77;6.93;;;;;;;;;;5043602;28;20037;-68
2023/01/01 01:05:32;;;;;;;16.33;6.30;;;;;;;;;;5046208;28;20060;-67
2023/01/01 01:07:59;;;;;;;19.70;6.93;;;;;;;;;;5046282;28;20033;-69
2023/01/01 01:10:26;;;;;;;20.00;7.00;;;;;;;;;;5041179;28;20080;-67
2023/01/01 01:12:53;;;;;;;25.58;7.65;;;;;;;;;;5037126;28;20044;-66
2023/01/01 01:15:19;;;;;;;18.67;7.65;;;;;;;;;;5041838;28;20033;-69
2023/01/01 01:17:46;;;;;;;17.08;8.02;;;;;;;;;;5042598;28;20053;-68
2023/01/01 01:20:13;;;;;;;19.90;7.70;;;;;;;;;;5040308;28;20033;-68
2023/01/01 01:22:39;;;;;;;26.77;7.63;;;;;;;;;;5047533;28;20120;-68
2023/01/01 01:25:06;;;;;;;21.25;9.98;;;;;;;;;;5046499;28;20182;-67
2023/01/01 01:27:42;;;;;;;20.02;8.95;;;;;;;;;;5039572;28;20075;-68
2023/01/01 01:30:08;;;;;;;20.80;8.85;;;;;;;;;;5027126;28;20048;-67
2023/01/01 01:32:35;;;;;;;20.33;8.43;;;;;;;;;;5021832;28;20390;-68
2023/01/01 01:35:05;;;;;;;18.00;7.78;;;;;;;;;;5036336;28;20124;-69
2023/01/01 01:37:31;;;;;;;18.50;7.85;;;;;;;;;;5044633;28;20045;-69
2023/01/01 01:40:01;;;;;;;18.52;7.97;;;;;;;;;;5045511;28;20072;-69
2023/01/01 01:42:27;;;;;;;14.60;7.47;;;;;;;;;;5033495;28;20144;-68
2023/01/01 01:44:56;;;;;;;13.75;7.85;;;;;;;;;;5021709;28;20056;-67
2023/01/01 01:47:23;;;;;;;16.70;7.63;;;;;;;;;;5021758;28;20148;-68
2023/01/01 01:49:52;;;;;;;19.67;7.40;;;;;;;;;;5022412;28;20114;-67
2023/01/01 01:52:19;;;;;;;14.18;7.07;;;;;;;;;;5022459;28;20041;-66
2023/01/01 01:54:46;;;;;;;21.38;7.60;;;;;;;;;;5041887;28;20432;-68
2023/01/01 01:57:13;;;;;;;21.05;7.45;;;;;;;;;;5038652;28;20132;-68
2023/01/01 01:59:42;;;;;;;23.50;8.25;;;;;;;;;;5044110;28;20051;-69
2023/01/01 02:02:22;;;;;;;20.83;7.50;;;;;;;;;;5046006;28;20501;-68
2023/01/01 02:04:49;;;;;;;18.38;7.88;;;;;;;;;;5047140;28;20060;-69
2023/01/01 02:07:15;;;;;;;23.55;8.05;;;;;;;;;;5044475;28;20048;-69
2023/01/01 02:09:42;;;;;;;23.80;8.88;;;;;;;;;;5042891;28;20378;-68
2023/01/01 02:12:09;;;;;;;21.58;8.10;;;;;;;;;;5033797;28;20242;-70
2023/01/01 02:14:39;;;;;;;18.40;7.45;;;;;;;;;;5016308;28;20041;-69
2023/01/01 02:17:24;;;;;;;17.77;8.77;;;;;;;;;;5030894;28;20541;-69
2023/01/01 02:20:11;;;;;;;17.40;7.85;;;;;;;;;;5060082;28;20044;-69
2023/01/01 02:22:56;;;;;;;14.60;7.75;;;;;;;;;;5043597;28;20033;-71
2023/01/01 02:25:27;;;;;;;15.27;7.57;;;;;;;;;;5042486;28;20029;-67
2023/01/01 02:28:02;;;;;;;17.55;8.38;;;;;;;;;;5045433;28;20045;-69
2023/01/01 02:30:31;;;;;;;15.23;8.05;;;;;;;;;;5063633;28;20458;-68
2023/01/01 02:33:01;;;;;;;19.23;7.97;;;;;;;;;;5049130;28;20131;-68
2023/01/01 02:35:33;;;;;;;21.92;8.38;;;;;;;;;;5061340;28;20166;-69
2023/01/01 02:38:23;;;;;;;22.23;8.60;;;;;;;;;;5065849;28;20112;-67
2023/01/01 02:40:52;;;;;;;16.55;7.47;;;;;;;;;;5042958;28;20116;-69
2023/01/01 02:43:19;;;;;;;16.38;7.43;;;;;;;;;;5049079;28;20053;-69
2023/01/01 02:45:45;;;;;;;14.63;6.68;;;;;;;;;;5050806;28;20045;-68
2023/01/01 02:48:31;;;;;;;17.15;7.68;;;;;;;;;;5053829;28;20044;-68
2023/01/01 02:50:59;;;;;;;25.08;7.85;;;;;;;;;;5046848;28;20037;-68
2023/01/01 02:53:33;;;;;;;17.42;7.78;;;;;;;;;;5047852;28;20044;-67
2023/01/01 02:56:14;;;;;;;22.15;8.52;;;;;;;;;;5053120;28;20565;-68
2023/01/01 03:01:47;;;;;;;25.58;9.00;;;;;;;;;;5055221;28;20628;-65
2023/01/01 03:04:31;;;;;;;17.73;8.30;;;;;;;;;;5049435;28;21778;-69
2023/01/01 03:07:10;;;;;;;18.98;9.38;;;;;;;;;;5048872;28;20070;-69
2023/01/01 03:09:43;;;;;;;30.20;11.85;;;;;;;;;;5039805;28;20044;-70
2023/01/01 03:12:39;;;;;;;25.90;9.15;;;;;;;;;;5051935;28;20052;-69
2023/01/01 03:15:21;;;;;;;25.17;9.70;;;;;;;;;;5040498;28;20120;-67
2023/01/01 03:17:50;;;;;;;18.52;8.98;;;;;;;;;;5035282;28;20033;-67
2023/01/01 03:20:21;;;;;;;21.50;8.93;;;;;;;;;;5028339;28;20338;-68
2023/01/01 03:22:49;;;;;;;21.15;9.18;;;;;;;;;;5051428;28;20511;-67
2023/01/01 03:25:22;;;;;;;18.02;8.73;;;;;;;;;;5045786;28;20504;-67
2023/01/01 03:27:56;;;;;;;15.70;7.83;;;;;;;;;;5035012;28;20737;-67
2023/01/01 03:30:26;;;;;;;25.00;8.65;;;;;;;;;;5025825;28;20041;-67
2023/01/01 03:33:02;;;;;;;25.55;9.63;;;;;;;;;;5027469;28;20042;-67
2023/01/01 03:35:38;;;;;;;18.20;8.10;;;;;;;;;;5027211;28;20045;-67
2023/01/01 03:38:07;;;;;;;23.65;10.10;;;;;;;;;;5026956;28;20042;-68
2023/01/01 03:40:35;;;;;;;24.88;10.80;;;;;;;;;;5039189;28;20037;-68
2023/01/01 03:43:28;;;;;;;28.42;11.60;;;;;;;;;;5032818;28;20049;-69
2023/01/01 03:45:55;;;;;;;22.52;9.68;;;;;;;;;;5054204;28;20564;-68
2023/01/01 03:48:21;;;;;;;21.02;7.45;;;;;;;;;;5060110;28;20071;-68
2023/01/01 03:50:57;;;;;;;19.52;8.10;;;;;;;;;;5052257;28;20036;-69
2023/01/01 03:53:24;;;;;;;18.90;8.00;;;;;;;;;;5054164;28;20067;-67
2023/01/01 03:55:56;;;;;;;22.92;8.30;;;;;;;;;;5052474;28;20082;-68
2023/01/01 03:58:35;;;;;;;23.58;7.82;;;;;;;;;;5045602;28;20063;-67
2023/01/01 04:01:10;;;;;;;20.42;8.27;;;;;;;;;;5053602;28;20041;-68
2023/01/01 04:03:38;;;;;;;21.02;7.75;;;;;;;;;;5051764;28;20637;-70
2023/01/01 04:06:05;;;;;;;22.67;7.93;;;;;;;;;;5053005;28;20036;-68
2023/01/01 04:08:34;;;;;;;25.85;9.00;;;;;;;;;;5051564;28;20132;-67
2023/01/01 04:12:00;;;;;;;26.98;8.63;;;;;;;;;;5039347;28;20040;-70
2023/01/01 04:13:50;;;;;;;21.40;8.07;;;;;;;;;;5051908;28;20110;-69
2023/01/01 04:16:16;;;;;;;19.67;8.25;;;;;;;;;;5048010;28;20069;-69
2023/01/01 04:18:43;;;;;;;19.80;7.90;;;;;;;;;;5042436;28;20148;-68
2023/01/01 04:21:12;;;;;;;28.73;12.77;;;;;;;;;;5029012;28;20502;-67
2023/01/01 04:23:39;;;;;;;26.40;11.00;;;;;;;;;;5031094;28;20763;-69
2023/01/01 04:26:06;;;;;;;32.58;12.10;;;;;;;;;;5047258;28;20055;-68
2023/01/01 04:28:33;;;;;;;21.45;10.52;;;;;;;;;;5046874;28;20047;-68
2023/01/01 04:31:01;;;;;;;29.02;12.07;;;;;;;;;;5048846;28;20055;-68
2023/01/01 04:33:28;;;;;;;25.23;10.55;;;;;;;;;;5052540;28;20514;-69
2023/01/01 04:35:55;;;;;;;30.55;11.48;;;;;;;;;;5024810;28;20040;-70
2023/01/01 04:38:21;;;;;;;30.73;11.70;;;;;;;;;;5029402;28;20045;-70
2023/01/01 04:40:57;;;;;;;26.90;10.95;;;;;;;;;;5060051;28;20048;-69
2023/01/01 04:43:24;;;;;;;37.10;11.35;;;;;;;;;;5029944;28;20584;-70
2023/01/01 04:46:00;;;;;;;29.77;11.23;;;;;;;;;;5050131;28;20051;-67
2023/01/01 04:48:28;;;;;;;33.25;11.15;;;;;;;;;;5047964;28;20040;-67
2023/01/01 04:50:56;;;;;;;32.55;11.05;;;;;;;;;;5046924;28;20064;-68
2023/01/01 04:53:22;;;;;;;24.30;11.18;;;;;;;;;;5032333;28;20058;-66
2023/01/01 04:55:50;;;;;;;40.88;11.85;;;;;;;;;;5048055;28;20033;-67
2023/01/01 04:58:17;;;;;;;38.42;13.30;;;;;;;;;;5046067;28;20508;-68
2023/01/01 05:00:43;;;;;;;26.05;10.27;;;;;;;;;;5050097;28;20074;-70
2023/01/01 05:03:10;;;;;;;32.22;10.15;;;;;;;;;;5059514;28;20139;-69
2023/01/01 05:05:37;;;;;;;21.58;8.70;;;;;;;;;;5017445;28;20123;-69
2023/01/01 05:08:03;;;;;;;29.20;10.15;;;;;;;;;;5019743;28;20060;-69
2023/01/01 05:10:30;;;;;;;26.70;8.85;;;;;;;;;;5013538;28;20118;-68
2023/01/01 05:12:56;;;;;;;24.40;8.20;;;;;;;;;;5014322;28;20123;-69
2023/01/01 05:15:23;;;;;;;27.60;8.00;;;;;;;;;;5020931;28;20469;-69
2023/01/01 05:17:50;;;;;;;23.65;7.68;;;;;;;;;;5030813;28;20048;-69
2023/01/01 05:20:16;;;;;;;18.00;6.88;;;;;;;;;;5026769;28;20052;-70
2023/01/01 05:22:45;;;;;;;19.60;6.88;;;;;;;;;;5021277;28;20069;-68
2023/01/01 05:25:12;;;;;;;22.92;8.20;;;;;;;;;;5011535;28;20159;-68
2023/01/01 05:27:39;;;;;;;16.75;8.13;;;;;;;;;;5009872;28;20742;-68
2023/01/01 05:30:06;;;;;;;19.52;7.25;;;;;;;;;;5012353;28;20046;-68
2023/01/01 05:32:32;;;;;;;19.33;7.30;;;;;;;;;;5011033;28;20128;-67
2023/01/01 05:34:59;;;;;;;17.55;7.68;;;;;;;;;;5010764;28;20179;-66
2023/01/01 05:37:26;;;;;;;28.10;8.45;;;;;;;;;;5011100;28;20044;-66
2023/01/01 05:39:52;;;;;;;18.90;7.38;;;;;;;;;;5011843;28;20056;-68
2023/01/01 05:42:19;;;;;;;46.75;21.65;;;;;;;;;;5013748;28;20041;-68
2023/01/01 05:44:45;;;;;;;22.75;9.88;;;;;;;;;;5025737;28;20052;-67
2023/01/01 05:47:14;;;;;;;32.53;13.30;;;;;;;;;;5029038;28;20429;-67
2023/01/01 05:49:40;;;;;;;49.88;17.05;;;;;;;;;;5024865;28;20037;-69
2023/01/01 05:52:08;;;;;;;41.33;14.82;;;;;;;;;;5024863;28;20627;-71
2023/01/01 05:54:35;;;;;;;23.55;9.52;;;;;;;;;;5023136;28;20220;-68
2023/01/01 05:57:01;;;;;;;24.10;8.52;;;;;;;;;;5024371;28;20171;-72
2023/01/01 06:02:15;;;;;;;15.65;6.30;;;;;;;;;;5035214;28;20065;-69
2023/01/01 06:04:41;;;;;;;17.42;7.43;;;;;;;;;;5031689;28;20134;-70
2023/01/01 06:07:09;;;;;;;12.32;6.45;;;;;;;;;;5021555;28;20052;-69
2023/01/01 06:09:36;;;;;;;17.95;6.07;;;;;;;;;;5034041;28;20060;-68
2023/01/01 06:12:02;;;;;;;11.55;5.88;;;;;;;;;;5024380;28;20048;-70
2023/01/01 06:14:29;;;;;;;19.25;6.75;;;;;;;;;;5024588;28;20041;-70
2023/01/01 06:16:56;;;;;;;10.35;5.03;;;;;;;;;;5024224;28;20549;-69
2023/01/01 06:19:23;;;;;;;11.90;4.60;;;;;;;;;;5036838;28;20041;-69
2023/01/01 06:21:49;;;;;;;9.52;4.50;;;;;;;;;;5023506;28;20041;-69
2023/01/01 06:24:16;;;;;;;13.63;4.43;;;;;;;;;;5025211;28;20045;-69
2023/01/01 06:26:43;;;;;;;10.00;4.07;;;;;;;;;;5036463;28;20052;-70
2023/01/01 06:29:10;;;;;;;8.20;3.97;;;;;;;;;;5025371;28;20107;-69
2023/01/01 06:31:37;;;;;;;9.20;2.78;;;;;;;;;;5025092;28;20131;-69
2023/01/01 06:34:03;;;;;;;12.02;3.35;;;;;;;;;;5036895;28;20190;-69
2023/01/01 06:36:30;;;;;;;9.13;3.72;;;;;;;;;;5022717;28;20045;-69
2023/01/01 06:39:02;;;;;;;8.30;3.30;;;;;;;;;;5023098;28;20045;-69
2023/01/01 06:41:29;;;;;;;10.93;3.60;;;;;;;;;;5019452;28;20056;-69
2023/01/01 06:43:56;;;;;;;7.65;4.43;;;;;;;;;;5037693;28;20057;-69
2023/01/01 06:46:33;;;;;;;12.50;6.38;;;;;;;;;;5049997;28;20045;-69
2023/01/01 06:49:19;;;;;;;16.40;5.60;;;;;;;;;;5041821;28;20577;-69
2023/01/01 06:51:46;;;;;;;6.38;3.38;;;;;;;;;;5037082;28;20040;-68
2023/01/01 06:54:13;;;;;;;10.00;3.45;;;;;;;;;;5038281;28;20041;-69
2023/01/01 06:56:40;;;;;;;9.80;3.95;;;;;;;;;;5045050;28;20048;-68
2023/01/01 06:59:06;;;;;;;9.10;5.00;;;;;;;;;;5045464;28;20082;-69
2023/01/01 07:01:35;;;;;;;12.55;5.18;;;;;;;;;;5041403;28;20037;-70
2023/01/01 07:04:07;;;;;;;12.90;5.30;;;;;;;;;;5046192;28;20040;-70
2023/01/01 07:06:34;;;;;;;9.57;4.25;;;;;;;;;;5041083;28;20040;-69
2023/01/01 07:09:01;;;;;;;7.28;3.28;;;;;;;;;;5043900;28;20114;-70
2023/01/01 07:11:27;;;;;;;13.60;3.50;;;;;;;;;;5046392;28;20072;-70
2023/01/01 07:13:54;;;;;;;9.82;3.53;;;;;;;;;;5043873;28;20040;-69
2023/01/01 07:16:22;;;;;;;12.25;3.65;;;;;;;;;;5050723;28;20123;-67
2023/01/01 07:18:49;;;;;;;6.78;2.97;;;;;;;;;;5045448;28;20048;-67
2023/01/01 07:21:25;;;;;;;9.57;2.95;;;;;;;;;;5039968;28;20041;-67
2023/01/01 07:23:52;;;;;;;8.98;2.90;;;;;;;;;;5035346;28;20036;-67
2023/01/01 07:26:18;;;;;;;8.80;2.88;;;;;;;;;;5048004;28;20044;-68
2023/01/01 07:28:45;;;;;;;10.80;3.20;;;;;;;;;;5023573;28;20437;-67
2023/01/01 07:31:11;;;;;;;8.05;2.78;;;;;;;;;;5024684;28;20061;-68
2023/01/01 07:33:38;;;;;;;8.02;2.67;;;;;;;;;;5025479;28;20060;-67
2023/01/01 07:36:05;;;;;;;8.27;3.30;;;;;;;;;;5043471;28;20043;-67
2023/01/01 07:38:31;;;;;;;6.57;2.78;;;;;;;;;;5020842;28;20036;-67
2023/01/01 07:40:58;;;;;;;6.88;2.60;;;;;;;;;;5023439;28;20089;-67
2023/01/01 07:43:25;;;;;;;9.38;2.65;;;;;;;;;;5021252;28;20680;-69
2023/01/01 07:45:51;;;;;;;5.55;2.40;;;;;;;;;;5036736;28;20410;-68
2023/01/01 07:48:18;;;;;;;7.95;2.45;;;;;;;;;;5041971;28;20167;-70
2023/01/01 07:50:45;;;;;;;5.47;1.95;;;;;;;;;;5025470;28;20585;-69
2023/01/01 07:53:12;;;;;;;5.53;1.80;;;;;;;;;;5037022;28;20069;-70
2023/01/01 07:55:38;;;;;;;5.30;1.77;;;;;;;;;;5048589;28;20124;-67
2023/01/01 07:58:05;;;;;;;3.33;1.20;;;;;;;;;;5062310;28;20036;-69
2023/01/01 08:00:32;;;;;;;4.15;1.20;;;;;;;;;;5044608;28;20047;-69
2023/01/01 08:02:58;;;;;;;3.10;1.35;;;;;;;;;;5045841;28;20045;-70
2023/01/01 08:05:25;;;;;;;4.93;1.48;;;;;;;;;;5044886;28;20091;-70
2023/01/01 08:07:52;;;;;;;3.58;1.25;;;;;;;;;;5033574;28;20039;-71
2023/01/01 08:10:19;;;;;;;6.47;1.40;;;;;;;;;;5046500;28;20063;-70
2023/01/01 08:12:46;;;;;;;5.28;1.40;;;;;;;;;;5062848;28;20515;-69
2023/01/01 08:15:14;;;;;;;3.83;1.45;;;;;;;;;;5048505;28;20568;-69
2023/01/01 08:17:41;;;;;;;2.65;1.05;;;;;;;;;;5045495;28;21014;-69
2023/01/01 08:20:08;;;;;;;4.20;1.35;;;;;;;;;;5045987;28;20039;-70
2023/01/01 08:22:35;;;;;;;3.35;1.42;;;;;;;;;;5046463;28;20036;-69
2023/01/01 08:25:02;;;;;;;2.88;1.10;;;;;;;;;;5032088;28;20039;-70
2023/01/01 08:27:28;;;;;;;5.88;1.05;;;;;;;;;;5045065;28;20047;-70
2023/01/01 08:29:55;;;;;;;2.78;0.90;;;;;;;;;;5047514;28;20378;-69
2023/01/01 08:32:22;;;;;;;2.40;0.90;;;;;;;;;;5045843;28;20037;-69
2023/01/01 08:34:48;;;;;;;3.92;1.00;;;;;;;;;;5046622;28;20036;-69
2023/01/01 08:37:15;;;;;;;2.17;0.80;;;;;;;;;;5046575;28;20032;-70
2023/01/01 08:39:41;;;;;;;1.73;0.65;;;;;;;;;;5044196;28;20094;-70
2023/01/01 08:42:08;;;;;;;2.13;0.65;;;;;;;;;;5045035;28;20044;-70
2023/01/01 08:44:35;;;;;;;1.33;0.40;;;;;;;;;;5044841;28;20086;-69
2023/01/01 08:47:01;;;;;;;1.98;0.50;;;;;;;;;;5045833;28;20134;-69
2023/01/01 08:49:28;;;;;;;0.88;0.40;;;;;;;;;;5046864;28;20086;-69
2023/01/01 08:51:54;;;;;;;0.93;0.40;;;;;;;;;;5045530;28;20678;-69
2023/01/01 08:54:21;;;;;;;4.18;0.52;;;;;;;;;;5044549;28;20509;-69
2023/01/01 08:56:48;;;;;;;1.15;0.40;;;;;;;;;;5044744;28;20063;-71
2023/01/01 08:59:14;;;;;;;1.80;0.50;;;;;;;;;;5046370;28;20036;-70
2023/01/01 09:01:41;;;;;;;2.92;0.60;;;;;;;;;;5045477;28;20494;-70
2023/01/01 09:04:11;;;;;;;2.97;0.60;;;;;;;;;;5043702;28;20557;-69
2023/01/01 09:06:38;;;;;;;1.30;0.50;;;;;;;;;;5055817;28;20140;-69
2023/01/01 09:09:04;;;;;;;1.70;0.60;;;;;;;;;;5030340;28;20175;-69
2023/01/01 09:11:31;;;;;;;2.00;0.68;;;;;;;;;;5046111;28;20071;-69
2023/01/01 09:13:57;;;;;;;1.98;0.68;;;;;;;;;;5044786;28;20552;-69
2023/01/01 09:16:24;;;;;;;3.08;0.77;;;;;;;;;;5045759;28;20044;-69
2023/01/01 09:18:51;;;;;;;2.00;0.60;;;;;;;;;;5047757;28;20529;-69
2023/01/01 09:21:37;;;;;;;1.88;0.60;;;;;;;;;;5044967;28;20109;-70
2023/01/01 09:24:04;;;;;;;1.77;0.60;;;;;;;;;;5044833;28;20610;-70
2023/01/01 09:26:31;;;;;;;2.40;0.70;;;;;;;;;;5044197;28;20594;-69
2023/01/01 09:28:58;;;;;;;2.60;0.88;;;;;;;;;;5045660;28;20041;-69
2023/01/01 09:31:25;;;;;;;1.48;0.60;;;;;;;;;;5043445;28;20044;-69
2023/01/01 09:33:51;;;;;;;1.90;0.57;;;;;;;;;;5044792;28;20041;-69
2023/01/01 09:36:18;;;;;;;1.77;0.65;;;;;;;;;;5046052;28;20056;-69
2023/01/01 09:38:51;;;;;;;1.77;0.60;;;;;;;;;;5044409;28;20737;-70
2023/01/01 09:41:29;;;;;;;2.00;0.60;;;;;;;;;;5044192;28;20049;-69
2023/01/01 09:44:08;;;;;;;2.53;0.70;;;;;;;;;;5044612;28;20662;-71
2023/01/01 09:46:35;;;;;;;1.55;0.50;;;;;;;;;;5045465;28;20068;-70
2023/01/01 09:49:31;;;;;;;1.88;0.60;;;;;;;;;;5047733;28;20588;-70
2023/01/01 09:52:00;;;;;;;0.85;0.40;;;;;;;;;;5031610;28;20094;-69
2023/01/01 09:54:32;;;;;;;1.50;0.50;;;;;;;;;;5027571;28;20048;-70
2023/01/01 09:57:00;;;;;;;1.25;0.55;;;;;;;;;;5025651;28;20049;-70
2023/01/01 09:59:27;;;;;;;1.77;0.50;;;;;;;;;;5025379;28;20052;-70
2023/01/01 10:02:10;;;;;;;1.50;0.50;;;;;;;;;;5026268;28;20037;-70
2023/01/01 10:04:55;;;;;;;2.20;0.70;;;;;;;;;;5025469;28;20167;-69
2023/01/01 10:07:40;;;;;;;1.58;0.55;;;;;;;;;;5024783;28;20049;-69
2023/01/01 10:10:26;;;;;;;1.73;0.52;;;;;;;;;;5024634;28;20041;-69
2023/01/01 10:12:52;;;;;;;2.97;0.88;;;;;;;;;;5027866;28;20045;-69
2023/01/01 10:15:23;;;;;;;4.22;0.60;;;;;;;;;;5025066;28;20596;-70
2023/01/01 10:17:53;;;;;;;2.22;0.57;;;;;;;;;;5026009;28;20156;-69
2023/01/01 10:20:20;;;;;;;1.80;0.60;;;;;;;;;;5024218;28;20108;-71
2023/01/01 10:22:48;;;;;;;2.35;0.68;;;;;;;;;;5024381;28;20054;-70
2023/01/01 10:25:29;;;;;;;3.95;0.80;;;;;;;;;;5020758;28;20514;-70
2023/01/01 10:28:04;;;;;;;1.77;0.70;;;;;;;;;;5044434;28;20086;-70
2023/01/01 10:30:31;;;;;;;3.15;0.70;;;;;;;;;;5044031;28;20461;-69
2023/01/01 10:32:58;;;;;;;2.67;0.80;;;;;;;;;;5030819;28;20539;-69
2023/01/01 10:35:34;;;;;;;2.78;0.70;;;;;;;;;;5023683;28;20063;-69
2023/01/01 10:38:03;;;;;;;3.20;1.05;;;;;;;;;;5037154;28;20506;-69
2023/01/01 10:40:30;;;;;;;3.17;1.00;;;;;;;;;;5025467;28;20132;-68
2023/01/01 10:42:58;;;;;;;3.92;0.90;;;;;;;;;;5026026;28;20226;-69
2023/01/01 10:45:30;;;;;;;3.03;0.77;;;;;;;;;;5024368;28;20128;-68
2023/01/01 10:48:10;;;;;;;2.97;1.00;;;;;;;;;;5025732;28;20208;-68
2023/01/01 10:50:48;;;;;;;2.25;0.60;;;;;;;;;;5026972;28;20053;-69
2023/01/01 10:53:25;;;;;;;2.53;0.75;;;;;;;;;;5040764;28;20033;-69
2023/01/01 10:55:57;;;;;;;2.75;0.73;;;;;;;;;;5028183;28;21399;-68
2023/01/01 10:58:27;;;;;;;1.55;0.55;;;;;;;;;;5028073;28;20156;-69
2023/01/01 11:00:58;;;;;;;1.75;0.65;;;;;;;;;;5028463;28;20044;-69
2023/01/01 11:03:24;;;;;;;2.28;0.80;;;;;;;;;;5026439;28;20048;-69
2023/01/01 11:06:04;;;;;;;2.75;0.73;;;;;;;;;;5028750;28;20033;-69
2023/01/01 11:08:31;;;;;;;2.63;0.95;;;;;;;;;;5027043;28;20148;-70
2023/01/01 11:10:59;;;;;;;1.52;0.60;;;;;;;;;;5028564;28;20586;-69
2023/01/01 11:13:26;;;;;;;2.38;0.80;;;;;;;;;;5028144;28;20876;-69
2023/01/01 11:15:53;;;;;;;1.95;0.60;;;;;;;;;;5030635;28;20084;-70
2023/01/01 11:18:26;;;;;;;2.65;0.70;;;;;;;;;;5026043;28;20801;-70
2023/01/01 11:20:55;;;;;;;2.30;0.80;;;;;;;;;;5029681;28;20103;-69
2023/01/01 11:23:29;;;;;;;3.35;0.80;;;;;;;;;;5027368;28;20124;-69
2023/01/01 11:26:01;;;;;;;2.97;0.63;;;;;;;;;;5028342;28;20082;-69
2023/01/01 11:28:30;;;;;;;2.08;0.68;;;;;;;;;;5027009;28;20037;-69
2023/01/01 11:31:17;;;;;;;4.15;0.95;;;;;;;;;;5029339;28;20072;-69
2023/01/01 11:33:53;;;;;;;2.50;0.70;;;;;;;;;;5027625;28;20417;-69
2023/01/01 11:36:24;;;;;;;2.30;0.80;;;;;;;;;;5024795;28;20042;-69
2023/01/01 11:39:04;;;;;;;2.50;0.95;;;;;;;;;;5026831;28;20051;-69
2023/01/01 11:41:40;;;;;;;3.20;1.00;;;;;;;;;;5027408;28;20048;-70
2023/01/01 11:44:08;;;;;;;5.45;0.85;;;;;;;;;;5027619;28;20484;-71
2023/01/01 11:46:35;;;;;;;3.65;0.90;;;;;;;;;;5025845;28;20135;-71
2023/01/01 11:49:02;;;;;;;2.10;0.75;;;;;;;;;;5025966;28;20389;-71
2023/01/01 11:51:32;;;;;;;3.22;0.80;;;;;;;;;;5027593;28;20126;-69
2023/01/01 11:54:29;;;;;;;2.67;0.80;;;;;;;;;;5027746;28;20931;-69
2023/01/01 11:57:01;;;;;;;5.18;1.35;;;;;;;;;;5028702;28;20037;-69
2023/01/01 11:59:30;;;;;;;2.95;0.90;;;;;;;;;;5026919;28;20037;-69
2023/01/01 12:02:02;;;;;;;3.20;1.05;;;;;;;;;;5027154;28;20123;-69
2023/01/01 12:04:38;;;;;;;2.75;0.80;;;;;;;;;;5026074;28;20099;-68
2023/01/01 12:07:15;;;;;;;3.15;1.00;;;;;;;;;;5027365;28;20130;-67
2023/01/01 12:10:03;;;;;;;2.95;0.80;;;;;;;;;;5026211;28;20379;-68
2023/01/01 12:12:41;;;;;;;2.50;0.85;;;;;;;;;;5027651;28;20060;-68
2023/01/01 12:15:14;;;;;;;2.35;0.80;;;;;;;;;;5026988;28;20063;-68
2023/01/01 12:17:41;;;;;;;1.90;0.70;;;;;;;;;;5027213;28;20071;-68
2023/01/01 12:20:20;;;;;;;2.58;0.80;;;;;;;;;;5026074;28;20291;-69
2023/01/01 12:22:47;;;;;;;2.13;0.75;;;;;;;;;;5040713;28;20047;-68
2023/01/01 12:25:15;;;;;;;3.03;0.80;;;;;;;;;;5047979;28;20029;-69
2023/01/01 12:27:51;;;;;;;5.50;1.35;;;;;;;;;;5021369;28;20707;-68
2023/01/01 12:30:37;;;;;;;7.55;1.15;;;;;;;;;;5036337;28;20052;-69
2023/01/01 12:33:07;;;;;;;7.22;1.38;;;;;;;;;;5031908;28;20140;-69
2023/01/01 12:35:34;;;;;;;4.25;1.15;;;;;;;;;;5026720;28;20060;-68
2023/01/01 12:38:00;;;;;;;2.63;0.93;;;;;;;;;;5019505;28;20045;-69
2023/01/01 12:40:36;;;;;;;3.08;1.10;;;;;;;;;;5036473;28;21930;-69
2023/01/01 12:43:11;;;;;;;5.13;1.15;;;;;;;;;;5024180;28;20462;-70
2023/01/01 12:45:46;;;;;;;3.63;1.17;;;;;;;;;;5034464;28;20090;-69
2023/01/01 12:48:16;;;;;;;2.35;0.75;;;;;;;;;;5043696;28;20037;-69
2023/01/01 12:50:55;;;;;;;4.45;1.10;;;;;;;;;;5046528;28;20480;-69
2023/01/01 12:53:32;;;;;;;3.42;1.00;;;;;;;;;;5046777;28;20119;-69
2023/01/01 12:56:15;;;;;;;3.40;1.00;;;;;;;;;;5046637;28;20029;-69
2023/01/01 12:58:50;;;;;;;4.38;1.13;;;;;;;;;;5049601;28;20893;-69
2023/01/01 13:01:23;;;;;;;3.67;1.20;;;;;;;;;;5054612;28;20061;-71
2023/01/01 13:03:54;;;;;;;4.07;1.63;;;;;;;;;;5054668;28;20069;-70
2023/01/01 13:06:23;;;;;;;3.65;1.30;;;;;;;;;;5047309;28;20033;-70
2023/01/01 13:08:54;;;;;;;4.90;1.35;;;;;;;;;;5046196;28;20606;-70
2023/01/01 13:11:22;;;;;;;4.20;1.38;;;;;;;;;;5046227;28;20472;-69
2023/01/01 13:13:49;;;;;;;4.97;1.33;;;;;;;;;;5045995;28;20052;-68
2023/01/01 13:16:31;;;;;;;6.10;1.23;;;;;;;;;;5047392;28;20120;-67
2023/01/01 13:18:58;;;;;;;4.53;1.33;;;;;;;;;;5044230;28;20036;-69
2023/01/01 13:21:27;;;;;;;4.13;1.23;;;;;;;;;;5060960;28;21334;-69
2023/01/01 13:23:54;;;;;;;3.17;1.15;;;;;;;;;;5045722;28;20168;-69
2023/01/01 13:26:20;;;;;;;3.13;1.00;;;;;;;;;;5044734;28;20044;-69
2023/01/01 13:28:50;;;;;;;3.42;1.25;;;;;;;;;;5045601;28;20048;-69
2023/01/01 13:31:17;;;;;;;3.28;1.05;;;;;;;;;;5045252;28;20048;-69
2023/01/01 13:33:43;;;;;;;4.22;1.10;;;;;;;;;;5051134;28;20100;-69
2023/01/01 13:36:10;;;;;;;4.15;1.50;;;;;;;;;;5046268;28;20041;-68
2023/01/01 13:38:53;;;;;;;4.07;1.48;;;;;;;;;;5050507;28;20044;-68
2023/01/01 13:41:34;;;;;;;3.78;1.50;;;;;;;;;;5046461;28;20041;-69
2023/01/01 13:44:03;;;;;;;3.50;1.13;;;;;;;;;;5046366;28;20186;-68
2023/01/01 13:46:42;;;;;;;5.20;1.27;;;;;;;;;;5046766;28;20676;-68
2023/01/01 13:49:12;;;;;;;4.28;1.55;;;;;;;;;;5045921;28;20649;-69
2023/01/01 13:51:41;;;;;;;3.92;1.20;;;;;;;;;;5044815;28;20048;-69
2023/01/01 13:54:26;;;;;;;4.68;1.48;;;;;;;;;;5045586;28;20115;-68
2023/01/01 13:57:11;;;;;;;4.75;1.38;;;;;;;;;;5045737;28;20045;-69
2023/01/01 13:59:44;;;;;;;6.05;1.35;;;;;;;;;;5045518;28;20045;-68
2023/01/01 14:02:10;;;;;;;4.70;1.80;;;;;;;;;;5047742;28;20583;-68
2023/01/01 14:04:41;;;;;;;4.60;1.67;;;;;;;;;;5061878;28;20100;-68
2023/01/01 14:07:26;;;;;;;3.60;1.50;;;;;;;;;;5046168;28;20656;-68
2023/01/01 14:09:52;;;;;;;3.58;1.30;;;;;;;;;;5042543;28;20121;-68
2023/01/01 14:12:20;;;;;;;6.60;1.52;;;;;;;;;;5063553;28;20044;-68
2023/01/01 14:14:47;;;;;;;5.65;1.75;;;;;;;;;;5061816;28;20084;-68
2023/01/01 14:17:16;;;;;;;3.90;1.60;;;;;;;;;;5062225;28;20051;-68
2023/01/01 14:19:43;;;;;;;5.05;1.55;;;;;;;;;;5062073;28;20040;-68
2023/01/01 14:22:11;;;;;;;3.20;1.20;;;;;;;;;;5064622;28;20533;-67
2023/01/01 14:24:40;;;;;;;2.78;1.10;;;;;;;;;;5063953;28;20330;-69
2023/01/01 14:27:07;;;;;;;3.40;1.02;;;;;;;;;;5059906;28;20041;-69
2023/01/01 14:29:34;;;;;;;2.83;1.08;;;;;;;;;;5048421;28;20044;-68
2023/01/01 14:32:11;;;;;;;3.92;1.13;;;;;;;;;;5048067;28;20036;-69
2023/01/01 14:34:38;;;;;;;3.08;1.10;;;;;;;;;;5045812;28;20525;-68
2023/01/01 14:37:06;;;;;;;3.08;1.20;;;;;;;;;;5047665;28;20091;-68
2023/01/01 14:39:36;;;;;;;2.92;1.10;;;;;;;;;;5050688;28;20052;-68
2023/01/01 14:42:06;;;;;;;3.22;1.20;;;;;;;;;;5069531;28;20044;-68
2023/01/01 14:44:34;;;;;;;2.42;0.90;;;;;;;;;;5025563;28;20788;-68
2023/01/01 14:47:01;;;;;;;8.90;1.13;;;;;;;;;;5032341;28;20529;-68
2023/01/01 14:49:29;;;;;;;3.22;1.05;;;;;;;;;;5039606;28;20041;-68
2023/01/01 14:52:22;;;;;;;2.80;1.10;;;;;;;;;;5050891;28;20042;-69
2023/01/01 14:54:49;;;;;;;4.82;1.10;;;;;;;;;;5052931;28;20044;-68
2023/01/01 14:57:19;;;;;;;3.90;1.40;;;;;;;;;;5049021;28;20041;-69
2023/01/01 14:59:53;;;;;;;3.70;1.40;;;;;;;;;;5049575;28;20624;-69